Time;durP1;ratioP1;P1;durP2;ratioP2;P2;SDS_P1;SDS_P2;PMS_P1;PMS_P2;Temp;Humidity;BMP_temperature;BMP_pressure;BME280_temperature;BME280_humidity;BME280_pressure;Samples;Min_cycle;Max_cycle;Signal;HPM_P1;HPM_P2
2021/07/31 00:01:08;;;;;;;4.78;1.20;;;20.30;60.80;;;;;;4953040;28;20039;-73
2021/07/31 00:03:35;;;;;;;3.35;1.23;;;20.30;60.60;;;;;;4954314;29;20044;-74
2021/07/31 00:06:02;;;;;;;4.38;1.08;;;20.10;60.70;;;;;;4953828;29;20039;-73
2021/07/31 00:08:29;;;;;;;4.22;1.33;;;20.10;62.10;;;;;;4954745;29;20058;-74
2021/07/31 00:10:55;;;;;;;5.90;1.80;;;20.00;62.00;;;;;;4953329;28;20513;-73
2021/07/31 00:13:22;;;;;;;6.50;1.38;;;19.90;62.20;;;;;;4952858;29;20039;-74
2021/07/31 00:15:48;;;;;;;3.42;1.38;;;19.90;61.20;;;;;;4953095;29;20035;-73
2021/07/31 00:18:14;;;;;;;4.45;1.10;;;19.90;60.90;;;;;;4954761;28;20039;-73
2021/07/31 00:20:40;;;;;;;6.05;1.40;;;19.90;60.80;;;;;;4954163;29;20054;-74
2021/07/31 00:23:07;;;;;;;4.05;1.13;;;20.00;59.80;;;;;;4954355;29;20027;-73
2021/07/31 00:25:34;;;;;;;4.28;1.10;;;20.00;60.10;;;;;;4953858;29;20381;-74
2021/07/31 00:28:00;;;;;;;4.03;1.88;;;19.90;60.10;;;;;;4954225;29;20480;-75
2021/07/31 00:30:28;;;;;;;7.07;1.50;;;19.90;60.10;;;;;;4954198;29;20043;-73
2021/07/31 00:32:56;;;;;;;3.35;1.25;;;19.90;60.30;;;;;;4953950;28;20401;-73
2021/07/31 00:35:22;;;;;;;6.43;2.05;;;19.90;60.60;;;;;;4954077;29;20388;-73
2021/07/31 00:37:52;;;;;;;2.58;0.82;;;19.70;61.10;;;;;;4952587;29;20039;-73
2021/07/31 00:40:18;;;;;;;5.32;1.50;;;19.60;61.60;;;;;;4954160;28;20040;-73
2021/07/31 00:42:45;;;;;;;4.93;1.77;;;19.50;62.00;;;;;;4953724;28;20043;-73
2021/07/31 00:45:12;;;;;;;7.05;1.25;;;19.50;61.80;;;;;;4953604;29;20031;-73
2021/07/31 00:47:40;;;;;;;4.18;1.27;;;19.40;61.80;;;;;;4953512;29;20047;-73
2021/07/31 00:50:07;;;;;;;7.07;1.48;;;19.40;62.00;;;;;;4953788;28;20043;-73
2021/07/31 00:52:34;;;;;;;4.63;1.20;;;19.40;62.10;;;;;;4952892;29;20047;-73
2021/07/31 00:55:02;;;;;;;3.95;1.30;;;19.40;62.90;;;;;;4953784;28;20047;-73
2021/07/31 00:57:31;;;;;;;5.22;1.85;;;19.40;60.60;;;;;;4968297;28;20040;-73
2021/07/31 01:00:18;;;;;;;6.55;1.40;;;19.50;61.20;;;;;;4968718;28;20044;-73
2021/07/31 01:02:44;;;;;;;3.42;1.30;;;19.40;60.80;;;;;;4953649;28;20066;-73
2021/07/31 01:05:11;;;;;;;6.28;1.73;;;19.40;61.00;;;;;;4958487;28;20059;-73
2021/07/31 01:07:39;;;;;;;8.57;1.05;;;19.40;61.10;;;;;;4945155;28;20044;-73
2021/07/31 01:10:08;;;;;;;4.90;1.23;;;19.30;61.30;;;;;;4951913;28;20043;-73
2021/07/31 01:12:35;;;;;;;4.97;1.42;;;19.30;60.90;;;;;;4953861;28;20047;-73
2021/07/31 01:15:02;;;;;;;5.10;1.40;;;19.30;60.80;;;;;;4967583;28;20050;-73
2021/07/31 01:17:30;;;;;;;8.18;1.20;;;19.20;61.20;;;;;;4966911;28;20043;-73
2021/07/31 01:19:57;;;;;;;5.80;1.25;;;19.20;61.20;;;;;;4952767;29;20035;-73
2021/07/31 01:22:23;;;;;;;9.35;1.30;;;19.20;61.20;;;;;;4953261;29;20031;-73
2021/07/31 01:25:02;;;;;;;6.75;1.10;;;19.20;61.00;;;;;;4953264;28;20039;-72
2021/07/31 01:27:28;;;;;;;5.15;1.33;;;19.20;60.80;;;;;;4953644;28;20040;-73
2021/07/31 01:29:55;;;;;;;5.55;1.35;;;19.20;61.10;;;;;;4952933;28;20264;-73
2021/07/31 01:32:21;;;;;;;3.83;1.40;;;19.10;61.50;;;;;;4967836;28;20047;-73
2021/07/31 01:34:48;;;;;;;4.72;1.63;;;19.00;62.10;;;;;;4967206;28;20051;-73
2021/07/31 01:37:15;;;;;;;8.95;2.45;;;18.90;63.20;;;;;;4953101;29;20035;-73
2021/07/31 01:39:47;;;;;;;4.13;1.30;;;18.80;62.90;;;;;;4967642;28;20047;-72
2021/07/31 01:42:14;;;;;;;6.95;1.30;;;18.90;62.40;;;;;;4940839;28;20449;-73
2021/07/31 01:44:41;;;;;;;5.03;1.40;;;18.90;62.20;;;;;;4953082;28;20047;-72
2021/07/31 01:47:07;;;;;;;4.35;1.20;;;18.80;64.10;;;;;;4966690;28;20040;-72
2021/07/31 01:49:35;;;;;;;5.15;1.70;;;18.70;63.20;;;;;;4967667;28;20039;-73
2021/07/31 01:52:08;;;;;;;2.72;1.17;;;18.60;63.70;;;;;;4953167;29;20039;-73
2021/07/31 01:54:36;;;;;;;2.95;1.35;;;18.50;63.80;;;;;;4952851;29;20043;-73
2021/07/31 01:57:03;;;;;;;7.32;2.67;;;18.40;64.40;;;;;;4953020;28;20047;-72
2021/07/31 01:59:55;;;;;;;8.43;2.67;;;18.30;64.20;;;;;;4962255;28;20055;-74
2021/07/31 02:02:24;;;;;;;6.13;1.77;;;18.30;64.40;;;;;;4967407;28;20490;-74
2021/07/31 02:04:57;;;;;;;5.88;1.98;;;18.30;64.10;;;;;;4966412;28;20054;-73
2021/07/31 02:07:33;;;;;;;4.88;1.33;;;18.40;63.80;;;;;;4966537;28;20035;-73
2021/07/31 02:10:00;;;;;;;6.53;1.35;;;18.50;63.40;;;;;;4967733;28;20047;-73
2021/07/31 02:12:27;;;;;;;8.27;1.92;;;18.40;63.70;;;;;;4952893;29;20038;-73
2021/07/31 02:14:53;;;;;;;5.97;1.85;;;18.40;63.50;;;;;;4967015;28;20043;-73
2021/07/31 02:17:22;;;;;;;5.80;1.48;;;18.40;63.70;;;;;;4966094;28;20377;-73
2021/07/31 02:19:49;;;;;;;7.25;1.30;;;18.50;63.40;;;;;;4952245;28;20047;-74
2021/07/31 02:22:30;;;;;;;6.65;1.20;;;18.50;63.00;;;;;;4968099;28;20043;-73
2021/07/31 02:25:15;;;;;;;6.15;1.40;;;18.50;63.40;;;;;;4955723;28;20046;-73
2021/07/31 02:28:04;;;;;;;4.75;1.38;;;18.50;63.10;;;;;;4956213;28;20043;-73
2021/07/31 02:30:30;;;;;;;4.80;1.10;;;18.40;63.30;;;;;;4955883;29;20054;-73
2021/07/31 02:32:59;;;;;;;4.47;1.23;;;18.50;63.50;;;;;;4955743;28;20401;-73
2021/07/31 02:35:33;;;;;;;5.38;1.30;;;18.40;63.50;;;;;;4954158;29;20047;-73
2021/07/31 02:38:38;;;;;;;4.30;1.77;;;18.30;63.90;;;;;;4977790;28;20431;-73
2021/07/31 02:41:06;;;;;;;35.85;4.03;;;18.30;64.20;;;;;;4992960;28;20042;-72
2021/07/31 02:43:35;;;;;;;;;;;18.20;64.40;;;;;;4976618;28;20056;-72
2021/07/31 02:46:07;;;;;;;5.68;1.33;;;18.10;64.90;;;;;;4954945;29;19911;-72
2021/07/31 02:48:36;;;;;;;7.90;1.45;;;18.10;64.80;;;;;;4956791;29;20038;-73
2021/07/31 02:51:10;;;;;;;4.47;1.08;;;18.00;65.20;;;;;;4970306;28;20050;-72
2021/07/31 02:53:54;;;;;;;5.43;1.65;;;18.00;65.10;;;;;;4954462;28;20047;-73
2021/07/31 02:56:21;;;;;;;6.72;1.45;;;18.00;65.30;;;;;;4947337;29;20616;-73
2021/07/31 02:58:50;;;;;;;5.28;1.38;;;18.00;65.00;;;;;;4954666;28;20098;-73
2021/07/31 03:01:16;;;;;;;7.22;1.60;;;17.90;65.50;;;;;;4954257;29;20048;-73
2021/07/31 03:03:43;;;;;;;6.53;1.15;;;17.80;65.70;;;;;;4955671;28;20039;-73
2021/07/31 03:06:10;;;;;;;4.70;1.40;;;17.70;66.60;;;;;;4955751;29;20031;-73
2021/07/31 03:08:38;;;;;;;4.53;1.30;;;17.60;66.90;;;;;;4942703;29;20031;-73
2021/07/31 03:11:08;;;;;;;4.60;1.35;;;17.50;66.70;;;;;;4961814;28;20031;-73
2021/07/31 03:13:35;;;;;;;7.03;1.55;;;17.50;66.90;;;;;;4962282;28;20047;-73
2021/07/31 03:16:02;;;;;;;4.10;1.00;;;17.40;67.40;;;;;;4955414;28;20098;-74
2021/07/31 03:18:29;;;;;;;7.30;1.70;;;17.30;67.80;;;;;;4954596;29;20043;-74
2021/07/31 03:20:56;;;;;;;5.03;1.10;;;17.20;67.90;;;;;;4955771;28;20398;-74
2021/07/31 03:23:43;;;;;;;6.00;1.13;;;17.30;67.90;;;;;;4937637;29;20040;-73
2021/07/31 03:26:09;;;;;;;4.38;1.10;;;17.20;69.70;;;;;;4954397;29;20042;-71
2021/07/31 03:28:35;;;;;;;9.57;1.42;;;17.00;70.00;;;;;;4968817;28;20409;-72
2021/07/31 03:31:02;;;;;;;4.70;1.70;;;16.90;70.70;;;;;;4968466;28;20086;-72
2021/07/31 03:33:29;;;;;;;5.57;1.55;;;16.80;71.40;;;;;;4970186;28;20047;-72
2021/07/31 03:35:56;;;;;;;4.95;1.65;;;16.60;71.70;;;;;;4968995;28;20043;-72
2021/07/31 03:38:25;;;;;;;6.32;2.10;;;16.60;72.20;;;;;;4941966;29;20043;-72
2021/07/31 03:40:53;;;;;;;6.80;1.17;;;16.40;72.70;;;;;;4959688;28;20102;-72
2021/07/31 03:43:23;;;;;;;4.25;1.50;;;16.40;73.00;;;;;;4965067;28;20052;-72
2021/07/31 03:45:50;;;;;;;2.47;1.17;;;16.40;73.20;;;;;;4955599;28;20054;-72
2021/07/31 03:48:17;;;;;;;7.57;1.58;;;16.40;73.10;;;;;;4954454;29;20034;-72
2021/07/31 03:50:45;;;;;;;7.75;1.63;;;16.40;73.30;;;;;;4969524;28;20058;-73
2021/07/31 03:53:14;;;;;;;4.35;1.77;;;16.30;73.30;;;;;;4968683;28;20047;-72
2021/07/31 03:55:48;;;;;;;2.78;1.27;;;16.30;73.60;;;;;;4955472;28;20059;-72
2021/07/31 03:58:15;;;;;;;6.88;1.85;;;16.30;73.70;;;;;;4943425;29;20074;-72
2021/07/31 04:00:43;;;;;;;5.30;1.63;;;16.20;73.90;;;;;;4954483;28;20055;-72
2021/07/31 04:03:10;;;;;;;5.30;1.55;;;16.30;74.20;;;;;;4967345;28;20485;-73
2021/07/31 04:05:39;;;;;;;4.85;1.48;;;16.20;74.30;;;;;;4949843;29;20062;-72
2021/07/31 04:08:24;;;;;;;126.63;11.10;;;16.20;74.10;;;;;;4954579;29;20054;-73
2021/07/31 04:11:08;;;;;;;7.93;1.83;;;16.30;74.50;;;;;;4954494;29;20393;-72
2021/07/31 04:13:57;;;;;;;4.45;1.38;;;16.20;74.80;;;;;;4953848;28;20039;-73
2021/07/31 04:16:34;;;;;;;6.65;1.40;;;16.20;74.70;;;;;;4969348;28;20473;-72
2021/07/31 04:19:00;;;;;;;7.20;1.63;;;16.20;74.80;;;;;;4968778;28;20047;-73
2021/07/31 04:21:27;;;;;;;5.10;1.52;;;16.10;75.30;;;;;;4969181;28;20047;-73
2021/07/31 04:23:53;;;;;;;8.63;1.40;;;16.20;76.20;;;;;;4953850;28;20047;-72
2021/07/31 04:26:19;;;;;;;6.55;1.73;;;16.20;75.50;;;;;;4954275;29;20385;-72
2021/07/31 04:28:45;;;;;;;6.00;1.40;;;16.20;75.30;;;;;;4953679;28;20470;-72
2021/07/31 04:31:13;;;;;;;7.15;2.00;;;16.30;75.50;;;;;;4952767;29;20043;-72
2021/07/31 04:33:40;;;;;;;4.75;1.70;;;16.40;74.90;;;;;;4952397;28;20047;-72
2021/07/31 04:36:08;;;;;;;5.13;2.08;;;16.40;75.40;;;;;;4937749;28;20058;-72
2021/07/31 04:38:35;;;;;;;3.70;1.80;;;16.40;75.40;;;;;;4954246;28;20043;-72
2021/07/31 04:41:03;;;;;;;6.13;2.03;;;16.50;75.90;;;;;;4953498;28;20456;-72
2021/07/31 04:43:31;;;;;;;7.22;2.00;;;16.50;75.60;;;;;;4953880;29;20401;-72
2021/07/31 04:45:58;;;;;;;7.32;2.08;;;16.50;76.00;;;;;;4953928;28;20050;-73
2021/07/31 04:48:24;;;;;;;6.05;2.08;;;16.90;75.00;;;;;;4952338;28;20035;-72
2021/07/31 04:50:56;;;;;;;4.40;1.38;;;17.60;73.30;;;;;;4953360;29;20039;-73
2021/07/31 04:53:22;;;;;;;6.03;2.28;;;18.40;70.40;;;;;;4953958;28;20051;-73
2021/07/31 04:55:48;;;;;;;6.68;1.77;;;19.10;68.10;;;;;;4952723;28;20039;-73
2021/07/31 04:58:15;;;;;;;5.78;1.77;;;19.80;67.60;;;;;;4953620;28;20074;-73
2021/07/31 05:00:41;;;;;;;3.53;1.80;;;20.30;65.70;;;;;;4953482;29;20032;-74
2021/07/31 05:03:07;;;;;;;8.98;1.85;;;20.90;63.00;;;;;;4953614;29;20027;-74
2021/07/31 05:05:35;;;;;;;7.20;1.50;;;21.20;62.70;;;;;;4953854;28;20050;-74
2021/07/31 05:08:01;;;;;;;5.15;1.42;;;21.50;61.90;;;;;;4967517;28;20043;-73
2021/07/31 05:10:28;;;;;;;4.07;1.38;;;21.70;62.20;;;;;;4953599;28;20046;-73
2021/07/31 05:12:54;;;;;;;4.57;1.60;;;21.70;60.10;;;;;;4952594;29;20039;-74
2021/07/31 05:15:20;;;;;;;8.48;1.42;;;21.50;61.10;;;;;;4953093;29;20043;-73
2021/07/31 05:17:46;;;;;;;6.93;1.00;;;22.10;60.00;;;;;;4953535;28;20058;-73
2021/07/31 05:20:13;;;;;;;5.10;1.40;;;22.60;57.90;;;;;;4953210;29;20465;-73
2021/07/31 05:22:40;;;;;;;3.95;1.00;;;22.10;59.40;;;;;;4939759;29;20039;-73
2021/07/31 05:25:07;;;;;;;3.97;1.48;;;22.90;58.00;;;;;;4953445;28;20047;-73
2021/07/31 05:27:33;;;;;;;3.53;1.10;;;23.70;56.90;;;;;;4953250;29;20392;-74
2021/07/31 05:29:59;;;;;;;5.72;1.60;;;24.30;55.20;;;;;;4951951;28;20054;-74
2021/07/31 05:32:26;;;;;;;8.45;1.67;;;24.50;56.40;;;;;;4954881;28;20050;-74
2021/07/31 05:34:55;;;;;;;4.97;1.75;;;25.00;53.40;;;;;;4944677;29;20043;-74
2021/07/31 05:37:21;;;;;;;5.55;1.77;;;25.20;53.60;;;;;;4952533;28;20401;-74
2021/07/31 05:39:47;;;;;;;5.45;1.73;;;24.70;53.60;;;;;;4952856;28;20055;-74
2021/07/31 05:42:13;;;;;;;5.25;1.65;;;24.80;53.80;;;;;;4967798;28;20035;-74
2021/07/31 05:44:40;;;;;;;6.30;1.55;;;24.60;53.70;;;;;;4966278;28;20055;-74
2021/07/31 05:47:06;;;;;;;4.78;1.40;;;24.70;53.30;;;;;;4953363;29;20365;-74
2021/07/31 05:49:32;;;;;;;7.00;1.88;;;24.60;53.00;;;;;;4943439;28;20054;-74
2021/07/31 05:51:58;;;;;;;5.35;1.60;;;24.60;53.20;;;;;;4966117;28;20050;-74
2021/07/31 05:54:24;;;;;;;6.10;1.75;;;25.00;52.40;;;;;;4952821;29;20042;-74
2021/07/31 05:56:51;;;;;;;4.20;1.70;;;25.30;52.10;;;;;;4952818;28;20047;-74
2021/07/31 05:59:17;;;;;;;5.05;1.70;;;25.50;51.80;;;;;;4953006;28;20378;-74
2021/07/31 06:01:44;;;;;;;1999.90;999.90;;;24.90;52.30;;;;;;4955553;29;20384;-74
2021/07/31 06:04:10;;;;;;;437.85;301.60;;;24.90;52.00;;;;;;4939425;28;20052;-74
2021/07/31 06:06:36;;;;;;;124.88;23.33;;;24.40;54.30;;;;;;4954067;28;20059;-74
2021/07/31 06:09:02;;;;;;;3.63;1.60;;;25.10;51.90;;;;;;4955617;28;20055;-74
2021/07/31 06:11:28;;;;;;;6.35;1.85;;;25.40;51.70;;;;;;4956223;28;20050;-72
2021/07/31 06:13:55;;;;;;;5.25;2.33;;;25.70;52.20;;;;;;4956365;29;20437;-73
2021/07/31 06:16:21;;;;;;;257.45;27.67;;;25.00;51.20;;;;;;4957750;28;20054;-73
2021/07/31 06:18:47;;;;;;;6.82;6.25;;;24.20;53.50;;;;;;4950357;29;20393;-73
2021/07/31 06:21:17;;;;;;;30.50;27.17;;;24.70;53.30;;;;;;4956578;29;20042;-73
2021/07/31 06:23:44;;;;;;;4.43;2.13;;;24.30;53.20;;;;;;4969871;28;20051;-73
2021/07/31 06:26:11;;;;;;;1789.43;590.55;;;24.80;52.60;;;;;;4956287;29;20034;-73
2021/07/31 06:28:37;;;;;;;5.68;1.48;;;24.10;53.40;;;;;;4954876;29;20035;-73
2021/07/31 06:31:06;;;;;;;4.70;1.67;;;23.50;54.20;;;;;;4954819;29;20436;-73
2021/07/31 06:33:32;;;;;;;8.65;2.10;;;23.00;55.10;;;;;;4956114;29;20035;-72
2021/07/31 06:35:58;;;;;;;6.68;1.55;;;23.50;55.50;;;;;;4954698;29;20074;-74
2021/07/31 06:38:24;;;;;;;5.90;1.83;;;24.10;53.70;;;;;;4953425;29;20062;-73
2021/07/31 06:40:51;;;;;;;9.98;1.70;;;24.80;54.40;;;;;;4956228;28;20047;-73
2021/07/31 06:43:17;;;;;;;7.03;1.77;;;24.80;52.60;;;;;;4955898;29;20027;-74
2021/07/31 06:45:43;;;;;;;3.33;1.25;;;23.80;53.80;;;;;;4955441;28;20074;-73
2021/07/31 06:48:09;;;;;;;5.15;1.65;;;24.60;53.60;;;;;;4955735;29;20377;-73
2021/07/31 06:50:36;;;;;;;25.13;3.95;;;24.80;52.90;;;;;;4952973;29;20039;-73
2021/07/31 06:53:02;;;;;;;42.30;5.47;;;24.80;52.50;;;;;;4954085;29;20059;-73
2021/07/31 06:55:28;;;;;;;11.57;10.57;;;24.00;53.40;;;;;;4955659;29;20039;-73
2021/07/31 06:57:54;;;;;;;1999.90;999.90;;;22.70;55.70;;;;;;4955031;29;20047;-73
2021/07/31 07:00:20;;;;;;;4.45;2.00;;;23.00;56.20;;;;;;4955767;29;20035;-74
2021/07/31 07:02:47;;;;;;;49.38;4.53;;;23.30;54.80;;;;;;4954123;29;20035;-74
2021/07/31 07:05:13;;;;;;;1999.90;999.90;;;22.60;56.30;;;;;;4955865;28;20477;-73
2021/07/31 07:07:39;;;;;;;1999.90;999.90;;;23.10;55.90;;;;;;4953130;28;20489;-73
2021/07/31 07:10:06;;;;;;;354.60;201.60;;;23.10;55.90;;;;;;4948477;28;20047;-73
2021/07/31 07:12:33;;;;;;;1999.90;999.90;;;23.80;54.90;;;;;;4942300;29;20034;-73
2021/07/31 07:14:59;;;;;;;5.93;1.88;;;24.20;54.00;;;;;;4956546;29;20043;-73
2021/07/31 07:17:25;;;;;;;576.03;80.40;;;25.40;53.40;;;;;;4957385;29;20023;-73
2021/07/31 07:19:51;;;;;;;186.88;32.05;;;25.40;52.30;;;;;;4956839;29;20028;-73
2021/07/31 07:22:18;;;;;;;5.05;1.33;;;25.20;52.70;;;;;;4956569;29;20407;-73
2021/07/31 07:24:44;;;;;;;8.50;1.50;;;25.10;53.00;;;;;;4955263;28;20047;-73
2021/07/31 07:27:10;;;;;;;4.10;1.27;;;24.20;54.00;;;;;;4954196;29;20042;-73
2021/07/31 07:29:36;;;;;;;4.22;1.40;;;23.60;55.70;;;;;;4956636;29;20058;-74
2021/07/31 07:32:05;;;;;;;5.97;1.70;;;24.10;53.80;;;;;;4954028;28;20055;-73
2021/07/31 07:34:31;;;;;;;282.42;39.85;;;23.50;55.90;;;;;;4955135;28;20056;-73
2021/07/31 07:36:58;;;;;;;3.72;1.35;;;23.90;54.90;;;;;;4946313;29;20039;-73
2021/07/31 07:39:24;;;;;;;5.40;1.95;;;24.40;53.70;;;;;;4949627;29;20486;-73
2021/07/31 07:41:50;;;;;;;4.90;1.33;;;24.90;52.80;;;;;;4954702;29;20042;-73
2021/07/31 07:44:16;;;;;;;40.95;9.07;;;24.70;53.40;;;;;;4939047;29;20039;-73
2021/07/31 07:46:43;;;;;;;7.07;1.70;;;24.60;53.00;;;;;;4951816;29;20054;-73
2021/07/31 07:49:09;;;;;;;7.28;1.83;;;24.70;53.30;;;;;;4954692;29;20453;-73
2021/07/31 07:51:35;;;;;;;7.22;1.80;;;23.50;55.50;;;;;;4955041;28;20035;-74
2021/07/31 07:54:01;;;;;;;1812.85;224.57;;;23.40;55.00;;;;;;4969428;28;20039;-72
2021/07/31 07:56:28;;;;;;;7.40;1.30;;;23.50;55.80;;;;;;4945529;29;20038;-73
2021/07/31 07:58:57;;;;;;;5.75;1.45;;;23.60;54.80;;;;;;4942490;29;20043;-72
2021/07/31 08:01:24;;;;;;;3.25;1.63;;;24.00;54.40;;;;;;4954633;29;20044;-72
2021/07/31 08:03:50;;;;;;;4.47;1.25;;;24.40;54.10;;;;;;4944540;29;20043;-73
2021/07/31 08:06:17;;;;;;;8.38;1.48;;;24.40;54.00;;;;;;4949937;29;20043;-73
2021/07/31 08:08:44;;;;;;;5.13;1.30;;;24.80;53.20;;;;;;4954805;28;20058;-71
2021/07/31 08:11:10;;;;;;;6.07;1.27;;;24.70;53.40;;;;;;4953494;28;20043;-73
2021/07/31 08:13:36;;;;;;;722.55;682.17;;;24.60;53.20;;;;;;4954704;29;20027;-73
2021/07/31 08:16:03;;;;;;;1431.57;886.45;;;24.10;54.00;;;;;;4954028;28;20062;-73
2021/07/31 08:18:29;;;;;;;234.70;39.00;;;23.40;55.40;;;;;;4954302;29;20038;-73
2021/07/31 08:20:55;;;;;;;4.78;1.27;;;23.10;56.60;;;;;;4953714;29;20039;-72
2021/07/31 08:23:21;;;;;;;155.75;78.05;;;23.80;54.40;;;;;;4954279;28;20035;-74
2021/07/31 08:25:47;;;;;;;4.40;1.33;;;24.80;54.20;;;;;;4944650;29;20046;-74
2021/07/31 08:28:14;;;;;;;110.43;80.93;;;24.70;53.40;;;;;;4938363;28;20048;-73
2021/07/31 08:30:40;;;;;;;881.45;821.33;;;24.30;53.60;;;;;;4954066;29;20401;-73
2021/07/31 08:33:06;;;;;;;815.25;536.10;;;23.60;54.70;;;;;;4955020;28;20043;-75
2021/07/31 08:35:32;;;;;;;4.82;2.03;;;23.30;55.80;;;;;;4936804;29;20040;-75
2021/07/31 08:37:58;;;;;;;7.15;1.70;;;23.60;55.40;;;;;;4953890;29;20032;-75
2021/07/31 08:40:25;;;;;;;7.50;1.58;;;24.10;53.80;;;;;;4952694;29;20031;-75
2021/07/31 08:42:52;;;;;;;6.15;1.30;;;22.90;56.30;;;;;;4953732;29;20035;-74
2021/07/31 08:45:18;;;;;;;3.03;1.20;;;23.70;55.00;;;;;;4953742;28;20051;-74
2021/07/31 08:47:46;;;;;;;4.15;1.13;;;24.00;55.60;;;;;;4951714;28;20077;-74
2021/07/31 08:50:14;;;;;;;6.68;1.75;;;24.40;53.90;;;;;;4953340;29;20039;-73
2021/07/31 08:52:41;;;;;;;3.92;1.63;;;24.60;54.10;;;;;;4953716;29;20043;-74
2021/07/31 08:55:08;;;;;;;5.45;1.88;;;24.50;53.20;;;;;;4954921;29;20031;-80
2021/07/31 08:57:34;;;;;;;126.63;23.55;;;23.50;54.60;;;;;;4951255;29;20050;-73
2021/07/31 09:00:01;;;;;;;8.93;1.75;;;23.90;55.60;;;;;;4958604;28;20050;-73
2021/07/31 09:02:40;;;;;;;7.20;1.70;;;24.50;55.10;;;;;;4953575;29;20035;-74
2021/07/31 09:05:08;;;;;;;3.88;1.25;;;24.80;53.40;;;;;;4966610;28;20058;-75
2021/07/31 09:07:34;;;;;;;5.95;1.92;;;24.70;52.90;;;;;;4961667;28;20046;-74
2021/07/31 09:10:31;;;;;;;4.20;1.52;;;24.40;53.50;;;;;;4957864;28;20033;-74
2021/07/31 09:12:59;;;;;;;151.75;33.13;;;24.40;53.20;;;;;;4959132;28;20052;-74
2021/07/31 09:15:41;;;;;;;42.88;4.35;;;23.90;53.30;;;;;;4952964;28;20051;-74
2021/07/31 09:18:34;;;;;;;38.17;22.48;;;23.90;54.30;;;;;;4940591;29;20032;-74
2021/07/31 09:21:04;;;;;;;58.92;27.42;;;24.10;53.30;;;;;;4958280;28;20035;-76
2021/07/31 09:23:51;;;;;;;4.50;4.10;;;24.30;52.80;;;;;;4953335;29;20027;-74
2021/07/31 09:26:24;;;;;;;4.35;1.30;;;24.20;53.20;;;;;;4954081;28;20050;-75
2021/07/31 09:29:04;;;;;;;2.17;1.05;;;23.40;53.60;;;;;;4951663;29;20035;-74
2021/07/31 09:31:32;;;;;;;2.45;1.38;;;24.40;53.20;;;;;;4952033;29;20035;-75
2021/07/31 09:34:00;;;;;;;2.97;1.27;;;25.30;51.00;;;;;;4951307;29;20047;-76
2021/07/31 09:36:44;;;;;;;1999.90;999.90;;;23.90;52.30;;;;;;4953356;29;20050;-74
2021/07/31 09:39:11;;;;;;;181.60;86.63;;;24.00;53.40;;;;;;4951704;29;20038;-74
2021/07/31 09:41:42;;;;;;;1999.90;999.90;;;24.50;52.70;;;;;;4953096;29;20039;-73
2021/07/31 09:44:09;;;;;;;1999.90;999.90;;;24.50;52.80;;;;;;4951481;29;20042;-74
2021/07/31 09:46:45;;;;;;;1999.90;999.90;;;24.60;52.40;;;;;;4969900;28;20046;-73
2021/07/31 09:49:19;;;;;;;5.80;1.20;;;24.70;52.10;;;;;;4953357;28;20047;-74
2021/07/31 09:51:48;;;;;;;3.78;1.38;;;24.60;52.20;;;;;;4951451;28;20023;-74
2021/07/31 09:54:17;;;;;;;3.78;1.25;;;25.20;52.30;;;;;;4954381;28;20039;-73
2021/07/31 09:56:48;;;;;;;6.37;1.47;;;25.20;52.00;;;;;;4952964;29;20031;-77
2021/07/31 09:59:17;;;;;;;4.78;1.40;;;24.60;52.20;;;;;;4951368;28;20051;-75
2021/07/31 10:01:53;;;;;;;3.67;1.02;;;24.40;53.30;;;;;;4951931;28;20047;-74
2021/07/31 10:04:19;;;;;;;3.63;1.38;;;24.60;52.90;;;;;;4944123;29;20051;-74
2021/07/31 10:06:45;;;;;;;6.45;1.90;;;24.20;52.80;;;;;;4953020;29;20362;-74
2021/07/31 10:09:12;;;;;;;3.10;1.15;;;24.30;52.20;;;;;;4952581;29;20035;-74
2021/07/31 10:11:39;;;;;;;3.92;1.40;;;24.70;52.00;;;;;;4938534;28;20501;-74
2021/07/31 10:14:08;;;;;;;2.83;1.13;;;24.40;52.50;;;;;;4952528;29;20377;-76
2021/07/31 10:16:37;;;;;;;6.10;1.60;;;23.50;52.70;;;;;;4953302;29;20036;-75
2021/07/31 10:19:05;;;;;;;4.05;1.02;;;22.80;55.00;;;;;;4951599;29;20039;-76
2021/07/31 10:21:46;;;;;;;4.38;1.42;;;22.80;55.50;;;;;;4953273;28;20051;-75
2021/07/31 10:24:12;;;;;;;4.53;1.60;;;23.20;54.70;;;;;;4952237;29;20034;-75
2021/07/31 10:26:39;;;;;;;5.88;1.75;;;23.60;54.50;;;;;;4952659;29;20032;-75
2021/07/31 10:29:26;;;;;;;4.95;1.50;;;23.90;52.90;;;;;;4952713;29;20028;-74
2021/07/31 10:31:55;;;;;;;4.57;1.25;;;23.50;53.40;;;;;;4951197;29;20035;-75
2021/07/31 10:34:41;;;;;;;4.30;1.85;;;23.10;53.80;;;;;;4952605;29;20031;-74
2021/07/31 10:37:27;;;;;;;3.90;1.35;;;22.60;55.30;;;;;;4954614;28;20058;-74
2021/07/31 10:39:56;;;;;;;3.83;1.20;;;23.20;55.90;;;;;;4934712;28;20055;-75
2021/07/31 10:42:23;;;;;;;3.27;1.17;;;23.80;53.00;;;;;;4949980;29;20042;-74
2021/07/31 10:45:26;;;;;;;4.22;1.38;;;23.90;52.70;;;;;;4952558;28;20035;-74
2021/07/31 10:48:03;;;;;;;4.32;1.77;;;23.90;52.90;;;;;;4954793;29;20051;-74
2021/07/31 10:50:29;;;;;;;4.40;1.52;;;24.00;52.70;;;;;;4938111;29;20039;-74
2021/07/31 10:53:04;;;;;;;5.03;1.40;;;24.40;52.60;;;;;;4952980;29;20064;-74
2021/07/31 10:55:36;;;;;;;4.53;1.48;;;24.10;52.90;;;;;;4954780;29;20035;-76
2021/07/31 10:58:05;;;;;;;5.15;1.52;;;23.80;53.70;;;;;;4969820;28;20043;-74
2021/07/31 11:00:39;;;;;;;3.00;1.10;;;23.60;55.00;;;;;;4955751;29;20035;-74
2021/07/31 11:03:31;;;;;;;4.53;1.60;;;23.40;54.80;;;;;;4954337;29;20363;-74
2021/07/31 11:05:58;;;;;;;4.30;1.40;;;23.60;54.00;;;;;;4943575;28;20058;-75
2021/07/31 11:08:26;;;;;;;5.80;1.63;;;23.60;54.10;;;;;;4951513;29;20040;-76
2021/07/31 11:10:56;;;;;;;4.50;1.63;;;23.50;54.20;;;;;;4954164;29;20043;-75
2021/07/31 11:13:23;;;;;;;2.65;1.20;;;23.40;53.10;;;;;;4970361;28;20043;-75
2021/07/31 11:16:04;;;;;;;4.20;1.05;;;23.70;54.20;;;;;;4955442;29;20043;-75
2021/07/31 11:18:36;;;;;;;3.03;1.30;;;23.70;54.20;;;;;;4955301;28;20047;-77
2021/07/31 11:21:10;;;;;;;3.28;1.35;;;23.70;52.00;;;;;;4955301;28;20070;-74
2021/07/31 11:23:57;;;;;;;4.72;1.73;;;23.00;54.20;;;;;;4955402;28;20059;-75
2021/07/31 11:26:43;;;;;;;2.20;0.95;;;22.90;54.00;;;;;;4955501;29;20372;-75
2021/07/31 11:29:21;;;;;;;3.17;1.23;;;22.90;54.20;;;;;;4955353;29;20035;-76
2021/07/31 11:32:09;;;;;;;3.08;1.30;;;22.90;53.80;;;;;;4955672;29;20036;-76
2021/07/31 11:34:36;;;;;;;5.50;1.63;;;22.90;54.60;;;;;;4955455;28;20043;-78
2021/07/31 11:37:03;;;;;;;16.63;1.83;;;22.90;52.90;;;;;;4953801;29;20035;-78
2021/07/31 11:39:30;;;;;;;2.92;1.20;;;23.20;53.20;;;;;;4955378;29;20031;-77
2021/07/31 11:41:59;;;;;;;3.67;1.23;;;23.20;53.40;;;;;;4953568;28;20043;-75
2021/07/31 11:44:28;;;;;;;2.78;1.33;;;23.40;51.80;;;;;;4956615;29;20027;-76
2021/07/31 11:46:55;;;;;;;3.97;1.50;;;23.10;52.30;;;;;;4958652;28;20084;-74
2021/07/31 11:49:24;;;;;;;2.28;1.02;;;23.30;52.60;;;;;;4967787;28;20416;-76
2021/07/31 11:51:53;;;;;;;4.50;1.42;;;23.90;52.30;;;;;;4958099;28;20047;-74
2021/07/31 11:54:19;;;;;;;4.15;1.50;;;23.90;52.30;;;;;;4956053;29;20023;-76
2021/07/31 11:56:46;;;;;;;4.40;1.30;;;24.00;53.20;;;;;;4954168;28;20039;-76
2021/07/31 11:59:22;;;;;;;2.35;1.35;;;23.90;52.10;;;;;;4950915;28;20412;-76
2021/07/31 12:01:52;;;;;;;3.03;1.42;;;23.80;52.20;;;;;;4954977;29;20477;-74
2021/07/31 12:04:51;;;;;;;4.60;1.45;;;24.30;51.90;;;;;;4954542;29;20039;-75
2021/07/31 12:07:21;;;;;;;4.13;1.05;;;24.30;51.70;;;;;;4963054;28;20503;-75
2021/07/31 12:10:01;;;;;;;;;;;24.80;50.90;;;;;;4955112;29;20038;-75
2021/07/31 12:12:30;;;;;;;4.57;1.58;;;24.60;51.00;;;;;;4968141;28;20360;-75
2021/07/31 12:15:15;;;;;;;3.90;1.52;;;24.30;51.40;;;;;;4954173;29;20035;-75
2021/07/31 12:18:03;;;;;;;3.20;1.10;;;23.50;52.50;;;;;;4953646;29;20484;-75
2021/07/31 12:20:48;;;;;;;3.97;1.20;;;24.10;52.40;;;;;;4954503;29;20038;-76
2021/07/31 12:23:14;;;;;;;3.67;1.40;;;24.40;52.10;;;;;;4953977;29;20040;-74
2021/07/31 12:25:58;;;;;;;5.40;1.30;;;24.10;51.80;;;;;;4954614;28;20047;-74
2021/07/31 12:28:41;;;;;;;5.57;1.77;;;24.60;51.40;;;;;;4954399;29;20042;-76
2021/07/31 12:31:39;;;;;;;3.03;1.42;;;24.60;51.90;;;;;;4953059;29;20393;-75
2021/07/31 12:34:11;;;;;;;3.40;1.40;;;24.70;51.20;;;;;;4962114;28;20497;-75
2021/07/31 12:36:54;;;;;;;3.75;1.63;;;24.90;51.80;;;;;;4955253;29;20319;-75
2021/07/31 12:39:20;;;;;;;5.43;1.48;;;25.20;51.60;;;;;;4950695;29;20047;-74
2021/07/31 12:41:47;;;;;;;4.88;1.15;;;24.60;51.90;;;;;;4938668;29;20031;-74
2021/07/31 12:44:13;;;;;;;3.58;1.35;;;24.70;52.10;;;;;;4953598;28;20470;-74
2021/07/31 12:46:39;;;;;;;3.65;1.50;;;25.00;51.00;;;;;;4954109;29;20042;-74
2021/07/31 12:49:05;;;;;;;4.07;1.67;;;25.10;51.10;;;;;;4953895;28;20054;-75
2021/07/31 12:51:31;;;;;;;3.42;1.30;;;25.60;50.90;;;;;;4952476;29;20027;-75
2021/07/31 12:53:58;;;;;;;2.65;1.20;;;25.30;50.20;;;;;;4953585;29;20461;-74
2021/07/31 12:56:24;;;;;;;2.90;1.38;;;25.60;50.30;;;;;;4952948;29;20039;-76